sensor_id;sensor_type;location;lat;lon;timestamp;pressure;altitude;pressure_sealevel;temperature;humidity
59274;BME280;45044;41.572;24.730;2023-06-19T00:01:07;91341.06;;;11.18;100.00
59274;BME280;45044;41.572;24.730;2023-06-19T00:03:34;91337.66;;;11.24;100.00
59274;BME280;45044;41.572;24.730;2023-06-19T00:06:01;91339.91;;;11.08;100.00
59274;BME280;45044;41.572;24.730;2023-06-19T00:08:29;91334.28;;;11.09;100.00
59274;BME280;45044;41.572;24.730;2023-06-19T00:10:57;91335.78;;;10.88;100.00
59274;BME280;45044;41.572;24.730;2023-06-19T00:13:24;91329.38;;;10.97;100.00
59274;BME280;45044;41.572;24.730;2023-06-19T00:15:51;91336.13;;;10.83;100.00
59274;BME280;45044;41.572;24.730;2023-06-19T00:18:17;91338.75;;;10.87;100.00
59274;BME280;45044;41.572;24.730;2023-06-19T00:20:46;91329.00;;;10.95;100.00
59274;BME280;45044;41.572;24.730;2023-06-19T00:23:13;91336.13;;;10.83;100.00
59274;BME280;45044;41.572;24.730;2023-06-19T00:25:43;91335.78;;;10.92;100.00
59274;BME280;45044;41.572;24.730;2023-06-19T00:28:11;91329.75;;;10.99;100.00
59274;BME280;45044;41.572;24.730;2023-06-19T00:30:41;91330.13;;;10.83;100.00
59274;BME280;45044;41.572;24.730;2023-06-19T00:33:08;91333.88;;;11.00;100.00
59274;BME280;45044;41.572;24.730;2023-06-19T00:35:35;91332.41;;;10.99;100.00
59274;BME280;45044;41.572;24.730;2023-06-19T00:38:02;91336.91;;;11.02;100.00
59274;BME280;45044;41.572;24.730;2023-06-19T00:40:31;91330.84;;;10.80;100.00
59274;BME280;45044;41.572;24.730;2023-06-19T00:42:58;91335.75;;;10.81;100.00
59274;BME280;45044;41.572;24.730;2023-06-19T00:45:25;91347.03;;;11.00;100.00
59274;BME280;45044;41.572;24.730;2023-06-19T00:47:53;91344.00;;;10.80;100.00
59274;BME280;45044;41.572;24.730;2023-06-19T00:50:21;91336.47;;;10.74;100.00
59274;BME280;45044;41.572;24.730;2023-06-19T00:52:48;91337.22;;;10.64;100.00
59274;BME280;45044;41.572;24.730;2023-06-19T00:55:16;91342.50;;;10.68;100.00
59274;BME280;45044;41.572;24.730;2023-06-19T00:57:43;91344.00;;;10.80;100.00
59274;BME280;45044;41.572;24.730;2023-06-19T01:00:10;91344.78;;;10.84;100.00
59274;BME280;45044;41.572;24.730;2023-06-19T01:02:39;91350.00;;;10.73;100.00
59274;BME280;45044;41.572;24.730;2023-06-19T01:05:06;91345.91;;;10.83;100.00
59274;BME280;45044;41.572;24.730;2023-06-19T01:07:56;91340.66;;;10.86;100.00
59274;BME280;45044;41.572;24.730;2023-06-19T01:10:33;91342.53;;;11.00;100.00
59274;BME280;45044;41.572;24.730;2023-06-19T01:13:17;91343.66;;;10.96;100.00
59274;BME280;45044;41.572;24.730;2023-06-19T01:15:52;91345.53;;;10.99;100.00
59274;BME280;45044;41.572;24.730;2023-06-19T01:18:26;91339.88;;;10.71;100.00
59274;BME280;45044;41.572;24.730;2023-06-19T01:20:53;91330.50;;;10.74;100.00
59274;BME280;45044;41.572;24.730;2023-06-19T01:23:20;91340.25;;;10.77;100.00
59274;BME280;45044;41.572;24.730;2023-06-19T01:25:47;91343.28;;;10.83;100.00
59274;BME280;45044;41.572;24.730;2023-06-19T01:28:21;91334.22;;;10.73;100.00
59274;BME280;45044;41.572;24.730;2023-06-19T01:30:48;91344.00;;;10.76;100.00
59274;BME280;45044;41.572;24.730;2023-06-19T01:33:25;91339.84;;;10.64;100.00
59274;BME280;45044;41.572;24.730;2023-06-19T01:35:54;91349.66;;;10.82;100.00
59274;BME280;45044;41.572;24.730;2023-06-19T01:38:23;91341.38;;;10.76;100.00
59274;BME280;45044;41.572;24.730;2023-06-19T01:40:53;91345.47;;;10.59;100.00
59274;BME280;45044;41.572;24.730;2023-06-19T01:43:21;91347.38;;;10.80;100.00
59274;BME280;45044;41.572;24.730;2023-06-19T01:45:48;91353.72;;;10.50;100.00
59274;BME280;45044;41.572;24.730;2023-06-19T01:48:15;91345.47;;;10.59;100.00
59274;BME280;45044;41.572;24.730;2023-06-19T01:50:46;91346.88;;;10.38;100.00
59274;BME280;45044;41.572;24.730;2023-06-19T01:53:14;91354.44;;;10.47;100.00
59274;BME280;45044;41.572;24.730;2023-06-19T01:55:41;91342.47;;;10.60;100.00
59274;BME280;45044;41.572;24.730;2023-06-19T01:58:08;91346.97;;;10.67;100.00
59274;BME280;45044;41.572;24.730;2023-06-19T02:00:35;91350.75;;;10.70;100.00
59274;BME280;45044;41.572;24.730;2023-06-19T02:03:02;91349.63;;;10.67;100.00
59274;BME280;45044;41.572;24.730;2023-06-19T02:05:30;91344.31;;;10.56;100.00
59274;BME280;45044;41.572;24.730;2023-06-19T02:07:57;91342.84;;;10.55;100.00
59274;BME280;45044;41.572;24.730;2023-06-19T02:10:24;91348.09;;;10.55;100.00
59274;BME280;45044;41.572;24.730;2023-06-19T02:12:51;91350.72;;;10.55;100.00
59274;BME280;45044;41.572;24.730;2023-06-19T02:15:17;91361.59;;;10.53;100.00
59274;BME280;45044;41.572;24.730;2023-06-19T02:17:44;91366.50;;;10.59;100.00
59274;BME280;45044;41.572;24.730;2023-06-19T02:20:11;91363.09;;;10.51;100.00
59274;BME280;45044;41.572;24.730;2023-06-19T02:22:39;91361.22;;;10.48;100.00
59274;BME280;45044;41.572;24.730;2023-06-19T02:25:06;91375.13;;;10.52;100.00
59274;BME280;45044;41.572;24.730;2023-06-19T02:27:33;91369.88;;;10.59;100.00
59274;BME280;45044;41.572;24.730;2023-06-19T02:30:00;91375.44;;;10.39;100.00
59274;BME280;45044;41.572;24.730;2023-06-19T02:32:27;91375.53;;;10.61;100.00
59274;BME280;45044;41.572;24.730;2023-06-19T02:34:53;91377.41;;;10.64;100.00
59274;BME280;45044;41.572;24.730;2023-06-19T02:37:20;91378.53;;;10.71;100.00
59274;BME280;45044;41.572;24.730;2023-06-19T02:39:47;91386.34;;;10.49;100.00
59274;BME280;45044;41.572;24.730;2023-06-19T02:42:14;91384.94;;;10.66;100.00
59274;BME280;45044;41.572;24.730;2023-06-19T02:44:41;91386.06;;;10.72;100.00
59274;BME280;45044;41.572;24.730;2023-06-19T02:47:09;91396.56;;;10.61;100.00
59274;BME280;45044;41.572;24.730;2023-06-19T02:49:36;91385.69;;;10.66;100.00
59274;BME280;45044;41.572;24.730;2023-06-19T02:52:04;91387.53;;;10.62;100.00
59274;BME280;45044;41.572;24.730;2023-06-19T02:54:32;91392.06;;;10.65;100.00
59274;BME280;45044;41.572;24.730;2023-06-19T02:56:58;91389.41;;;10.58;100.00
59274;BME280;45044;41.572;24.730;2023-06-19T02:59:27;91385.63;;;10.48;100.00
59274;BME280;45044;41.572;24.730;2023-06-19T03:01:54;91395.41;;;10.59;100.00
59274;BME280;45044;41.572;24.730;2023-06-19T03:04:20;91399.16;;;10.54;100.00
59274;BME280;45044;41.572;24.730;2023-06-19T03:06:47;91393.06;;;10.39;100.00
59274;BME280;45044;41.572;24.730;2023-06-19T03:09:14;91389.00;;;10.49;100.00
59274;BME280;45044;41.572;24.730;2023-06-19T03:11:41;91384.16;;;10.58;100.00
59274;BME280;45044;41.572;24.730;2023-06-19T03:14:08;91391.97;;;10.47;100.00
59274;BME280;45044;41.572;24.730;2023-06-19T03:16:35;91376.63;;;10.57;100.00
59274;BME280;45044;41.572;24.730;2023-06-19T03:19:02;91385.31;;;10.64;100.00
59274;BME280;45044;41.572;24.730;2023-06-19T03:21:29;91385.72;;;10.74;100.00
59274;BME280;45044;41.572;24.730;2023-06-19T03:23:56;91388.31;;;10.70;100.00
59274;BME280;45044;41.572;24.730;2023-06-19T03:26:24;91367.97;;;10.49;100.00
59274;BME280;45044;41.572;24.730;2023-06-19T03:28:51;91381.50;;;10.58;100.00
59274;BME280;45044;41.572;24.730;2023-06-19T03:31:18;91384.53;;;10.57;100.00
59274;BME280;45044;41.572;24.730;2023-06-19T03:33:45;91381.56;;;10.73;100.00
59274;BME280;45044;41.572;24.730;2023-06-19T03:36:11;91389.44;;;10.73;100.00
59274;BME280;45044;41.572;24.730;2023-06-19T03:38:38;91377.88;;;11.03;100.00
59274;BME280;45044;41.572;24.730;2023-06-19T03:41:05;91386.88;;;11.06;100.00
59274;BME280;45044;41.572;24.730;2023-06-19T03:43:32;91384.66;;;11.15;100.00
59274;BME280;45044;41.572;24.730;2023-06-19T03:45:58;91382.41;;;11.17;100.00
59274;BME280;45044;41.572;24.730;2023-06-19T03:48:25;91382.38;;;10.99;100.00
59274;BME280;45044;41.572;24.730;2023-06-19T03:50:52;91386.13;;;11.05;100.00
59274;BME280;45044;41.572;24.730;2023-06-19T03:53:19;91377.91;;;11.18;100.00
59274;BME280;45044;41.572;24.730;2023-06-19T03:55:45;91386.53;;;11.33;100.00
59274;BME280;45044;41.572;24.730;2023-06-19T03:58:12;91383.13;;;11.47;100.00
59274;BME280;45044;41.572;24.730;2023-06-19T04:00:39;91385.41;;;11.48;100.00
59274;BME280;45044;41.572;24.730;2023-06-19T04:03:07;91383.53;;;11.45;100.00
59274;BME280;45044;41.572;24.730;2023-06-19T04:05:36;91378.63;;;11.58;100.00
59274;BME280;45044;41.572;24.730;2023-06-19T04:08:03;91383.50;;;11.67;100.00
59274;BME280;45044;41.572;24.730;2023-06-19T04:10:30;91388.00;;;11.78;100.00
59274;BME280;45044;41.572;24.730;2023-06-19T04:13:00;91389.16;;;11.69;100.00
59274;BME280;45044;41.572;24.730;2023-06-19T04:15:27;91389.16;;;11.84;100.00
59274;BME280;45044;41.572;24.730;2023-06-19T04:17:54;91394.41;;;11.80;100.00
59274;BME280;45044;41.572;24.730;2023-06-19T04:20:20;91392.50;;;11.99;100.00
59274;BME280;45044;41.572;24.730;2023-06-19T04:22:48;91391.34;;;12.07;100.00
59274;BME280;45044;41.572;24.730;2023-06-19T04:25:14;91394.34;;;12.24;100.00
59274;BME280;45044;41.572;24.730;2023-06-19T04:27:41;91391.72;;;12.28;100.00
59274;BME280;45044;41.572;24.730;2023-06-19T04:30:08;91384.56;;;12.28;100.00
59274;BME280;45044;41.572;24.730;2023-06-19T04:32:35;91381.94;;;12.28;100.00
59274;BME280;45044;41.572;24.730;2023-06-19T04:35:02;91379.28;;;12.32;100.00
59274;BME280;45044;41.572;24.730;2023-06-19T04:37:29;91378.09;;;12.44;100.00
59274;BME280;45044;41.572;24.730;2023-06-19T04:39:55;91373.94;;;12.50;100.00
59274;BME280;45044;41.572;24.730;2023-06-19T04:42:22;91370.09;;;12.66;100.00
59274;BME280;45044;41.572;24.730;2023-06-19T04:44:49;91381.16;;;13.67;100.00
59274;BME280;45044;41.572;24.730;2023-06-19T04:47:18;91386.06;;;15.60;100.00
59274;BME280;45044;41.572;24.730;2023-06-19T04:49:45;91394.22;;;17.36;100.00
59274;BME280;45044;41.572;24.730;2023-06-19T04:52:14;91404.53;;;19.03;100.00
59274;BME280;45044;41.572;24.730;2023-06-19T04:54:40;91405.41;;;19.91;100.00
59274;BME280;45044;41.572;24.730;2023-06-19T04:57:07;91405.47;;;21.26;100.00
59274;BME280;45044;41.572;24.730;2023-06-19T04:59:34;91409.31;;;22.07;100.00
59274;BME280;45044;41.572;24.730;2023-06-19T05:02:01;91415.28;;;22.40;100.00
59274;BME280;45044;41.572;24.730;2023-06-19T05:04:27;91411.88;;;23.48;100.00
59274;BME280;45044;41.572;24.730;2023-06-19T05:06:59;91419.94;;;24.31;100.00
59274;BME280;45044;41.572;24.730;2023-06-19T05:09:26;91413.00;;;24.15;100.00
59274;BME280;45044;41.572;24.730;2023-06-19T05:11:53;91404.53;;;24.56;97.26
59274;BME280;45044;41.572;24.730;2023-06-19T05:14:20;91408.38;;;24.40;100.00
59274;BME280;45044;41.572;24.730;2023-06-19T05:16:46;91398.91;;;24.69;98.46
59274;BME280;45044;41.572;24.730;2023-06-19T05:19:13;91402.84;;;24.98;95.18
59274;BME280;45044;41.572;24.730;2023-06-19T05:21:41;91402.44;;;25.36;92.14
59274;BME280;45044;41.572;24.730;2023-06-19T05:24:07;91400.47;;;26.45;77.54
59274;BME280;45044;41.572;24.730;2023-06-19T05:26:34;91398.00;;;27.15;68.72
59274;BME280;45044;41.572;24.730;2023-06-19T05:29:01;91398.75;;;27.48;65.15
59274;BME280;45044;41.572;24.730;2023-06-19T05:31:28;91397.00;;;27.77;64.44
59274;BME280;45044;41.572;24.730;2023-06-19T05:33:55;91390.28;;;26.54;65.00
59274;BME280;45044;41.572;24.730;2023-06-19T05:36:22;91395.22;;;26.56;73.44
59274;BME280;45044;41.572;24.730;2023-06-19T05:38:55;91385.06;;;27.25;68.71
59274;BME280;45044;41.572;24.730;2023-06-19T05:41:21;91384.81;;;27.93;65.41
59274;BME280;45044;41.572;24.730;2023-06-19T05:43:48;91390.75;;;28.64;58.49
59274;BME280;45044;41.572;24.730;2023-06-19T05:46:15;91389.63;;;29.17;56.79
59274;BME280;45044;41.572;24.730;2023-06-19T05:48:42;91396.75;;;29.37;55.67
59274;BME280;45044;41.572;24.730;2023-06-19T05:51:08;91386.56;;;30.07;54.60
59274;BME280;45044;41.572;24.730;2023-06-19T05:53:35;91394.75;;;29.03;54.98
59274;BME280;45044;41.572;24.730;2023-06-19T05:56:02;91389.63;;;29.17;54.76
59274;BME280;45044;41.572;24.730;2023-06-19T05:58:30;91382.59;;;30.13;53.77
59274;BME280;45044;41.572;24.730;2023-06-19T06:00:57;91390.19;;;30.38;52.38
59274;BME280;45044;41.572;24.730;2023-06-19T06:03:25;91385.59;;;30.69;51.15
59274;BME280;45044;41.572;24.730;2023-06-19T06:05:53;91386.75;;;30.32;50.31
59274;BME280;45044;41.572;24.730;2023-06-19T06:08:20;91388.00;;;31.21;49.29
59274;BME280;45044;41.572;24.730;2023-06-19T06:10:47;91386.06;;;31.77;48.91
59274;BME280;45044;41.572;24.730;2023-06-19T06:13:14;91383.91;;;29.61;50.51
59274;BME280;45044;41.572;24.730;2023-06-19T06:15:40;91387.47;;;27.88;55.75
59274;BME280;45044;41.572;24.730;2023-06-19T06:18:07;91386.97;;;27.89;57.84
59274;BME280;45044;41.572;24.730;2023-06-19T06:20:34;91393.91;;;28.63;55.68
59274;BME280;45044;41.572;24.730;2023-06-19T06:23:00;91391.34;;;29.26;53.98
59274;BME280;45044;41.572;24.730;2023-06-19T06:25:27;91384.84;;;30.04;50.27
59274;BME280;45044;41.572;24.730;2023-06-19T06:27:54;91392.63;;;30.47;50.85
59274;BME280;45044;41.572;24.730;2023-06-19T06:30:26;91386.13;;;31.04;48.10
59274;BME280;45044;41.572;24.730;2023-06-19T06:32:55;91390.84;;;29.45;51.58
59274;BME280;45044;41.572;24.730;2023-06-19T06:35:21;91386.56;;;30.12;50.19
59274;BME280;45044;41.572;24.730;2023-06-19T06:37:48;91380.72;;;29.74;51.40
59274;BME280;45044;41.572;24.730;2023-06-19T06:40:18;91396.13;;;30.19;49.80
59274;BME280;45044;41.572;24.730;2023-06-19T06:42:44;91389.84;;;29.88;51.11
59274;BME280;45044;41.572;24.730;2023-06-19T06:45:11;91393.78;;;29.18;50.87
59274;BME280;45044;41.572;24.730;2023-06-19T06:47:38;91387.16;;;29.25;51.88
59274;BME280;45044;41.572;24.730;2023-06-19T06:50:07;91386.91;;;29.40;49.04
59274;BME280;45044;41.572;24.730;2023-06-19T06:52:35;91390.84;;;30.50;46.73
59274;BME280;45044;41.572;24.730;2023-06-19T06:55:01;91391.81;;;29.36;48.74
59274;BME280;45044;41.572;24.730;2023-06-19T06:57:28;91376.06;;;29.74;48.32
59274;BME280;45044;41.572;24.730;2023-06-19T06:59:55;91381.88;;;30.72;45.88
59274;BME280;45044;41.572;24.730;2023-06-19T07:02:22;91392.06;;;31.03;45.56
59274;BME280;45044;41.572;24.730;2023-06-19T07:04:49;91378.78;;;30.57;46.85
59274;BME280;45044;41.572;24.730;2023-06-19T07:07:16;91386.53;;;30.78;45.27
59274;BME280;45044;41.572;24.730;2023-06-19T07:09:43;91376.47;;;30.07;44.17
59274;BME280;45044;41.572;24.730;2023-06-19T07:12:10;91379.03;;;29.31;47.46
59274;BME280;45044;41.572;24.730;2023-06-19T07:14:37;91382.78;;;28.38;49.05
59274;BME280;45044;41.572;24.730;2023-06-19T07:17:04;91378.31;;;27.09;49.84
59274;BME280;45044;41.572;24.730;2023-06-19T07:19:33;91376.38;;;26.35;52.22
59274;BME280;45044;41.572;24.730;2023-06-19T07:22:00;91376.50;;;25.18;51.18
59274;BME280;45044;41.572;24.730;2023-06-19T07:24:28;91379.81;;;24.67;52.71
59274;BME280;45044;41.572;24.730;2023-06-19T07:26:54;91390.47;;;24.76;52.84
59274;BME280;45044;41.572;24.730;2023-06-19T07:29:22;91392.44;;;24.36;58.86
59274;BME280;45044;41.572;24.730;2023-06-19T07:31:53;91384.22;;;23.14;60.13
59274;BME280;45044;41.572;24.730;2023-06-19T07:34:20;91390.72;;;22.04;78.42
59274;BME280;45044;41.572;24.730;2023-06-19T07:36:48;91390.88;;;22.47;82.30
59274;BME280;45044;41.572;24.730;2023-06-19T07:39:16;91383.00;;;22.71;98.05
59274;BME280;45044;41.572;24.730;2023-06-19T07:41:43;91401.28;;;22.45;100.00
59274;BME280;45044;41.572;24.730;2023-06-19T07:44:11;91396.69;;;22.36;100.00
59274;BME280;45044;41.572;24.730;2023-06-19T07:46:37;91401.56;;;22.00;100.00
59274;BME280;45044;41.572;24.730;2023-06-19T07:49:04;91405.38;;;21.80;100.00
59274;BME280;45044;41.572;24.730;2023-06-19T07:51:31;91407.97;;;21.61;100.00
59274;BME280;45044;41.572;24.730;2023-06-19T07:53:58;91401.13;;;21.51;100.00
59274;BME280;45044;41.572;24.730;2023-06-19T07:56:25;91404.09;;;21.53;100.00
59274;BME280;45044;41.572;24.730;2023-06-19T07:58:51;91409.50;;;21.72;100.00
59274;BME280;45044;41.572;24.730;2023-06-19T08:01:18;91410.47;;;21.87;96.28
59274;BME280;45044;41.572;24.730;2023-06-19T08:03:45;91414.91;;;21.90;93.69
59274;BME280;45044;41.572;24.730;2023-06-19T08:06:12;91409.31;;;22.07;100.00
59274;BME280;45044;41.572;24.730;2023-06-19T08:08:39;91412.72;;;22.26;100.00
59274;BME280;45044;41.572;24.730;2023-06-19T08:11:05;91407.09;;;22.43;100.00
59274;BME280;45044;41.572;24.730;2023-06-19T08:13:32;91413.63;;;22.89;100.00
59274;BME280;45044;41.572;24.730;2023-06-19T08:16:00;91414.75;;;23.26;100.00
59274;BME280;45044;41.572;24.730;2023-06-19T08:18:28;91418.69;;;23.59;78.42
59274;BME280;45044;41.572;24.730;2023-06-19T08:20:55;91415.97;;;23.68;73.19
59274;BME280;45044;41.572;24.730;2023-06-19T08:23:22;91418.25;;;23.85;74.27
59274;BME280;45044;41.572;24.730;2023-06-19T08:25:49;91421.63;;;23.95;73.06
59274;BME280;45044;41.572;24.730;2023-06-19T08:28:17;91428.38;;;23.90;66.38
59274;BME280;45044;41.572;24.730;2023-06-19T08:30:45;91424.28;;;23.70;71.36
59274;BME280;45044;41.572;24.730;2023-06-19T08:33:13;91414.56;;;23.48;70.67
59274;BME280;45044;41.572;24.730;2023-06-19T08:35:40;91418.97;;;23.61;74.31
59274;BME280;45044;41.572;24.730;2023-06-19T08:38:07;91418.91;;;23.70;65.03
59274;BME280;45044;41.572;24.730;2023-06-19T08:40:34;91421.88;;;23.72;74.77
59274;BME280;45044;41.572;24.730;2023-06-19T08:43:01;91427.25;;;23.72;79.93
59274;BME280;45044;41.572;24.730;2023-06-19T08:45:27;91423.19;;;23.43;78.75
59274;BME280;45044;41.572;24.730;2023-06-19T08:48:00;91424.91;;;23.03;79.40
59274;BME280;45044;41.572;24.730;2023-06-19T08:50:29;91424.59;;;23.10;77.61
59274;BME280;45044;41.572;24.730;2023-06-19T08:52:56;91436.25;;;23.60;82.62
59274;BME280;45044;41.572;24.730;2023-06-19T08:55:24;91428.69;;;23.39;73.91
59274;BME280;45044;41.572;24.730;2023-06-19T08:57:51;91417.25;;;23.39;70.61
59274;BME280;45044;41.572;24.730;2023-06-19T09:00:26;91424.22;;;23.79;71.13
59274;BME280;45044;41.572;24.730;2023-06-19T09:03:01;91425.78;;;23.71;77.07
59274;BME280;45044;41.572;24.730;2023-06-19T09:05:42;91427.56;;;23.12;75.46
59274;BME280;45044;41.572;24.730;2023-06-19T09:08:22;91433.59;;;23.50;74.90
59274;BME280;45044;41.572;24.730;2023-06-19T09:10:59;91424.25;;;24.53;89.79
59274;BME280;45044;41.572;24.730;2023-06-19T09:13:28;91423.63;;;25.13;69.66
59274;BME280;45044;41.572;24.730;2023-06-19T09:16:07;91416.19;;;25.08;62.90
59274;BME280;45044;41.572;24.730;2023-06-19T09:18:46;91419.06;;;25.34;63.16
59274;BME280;45044;41.572;24.730;2023-06-19T09:21:19;91415.72;;;25.40;62.19
59274;BME280;45044;41.572;24.730;2023-06-19T09:23:48;91415.63;;;25.34;65.21
59274;BME280;45044;41.572;24.730;2023-06-19T09:26:18;91417.09;;;25.05;66.76
59274;BME280;45044;41.572;24.730;2023-06-19T09:28:46;91405.06;;;24.45;73.80
59274;BME280;45044;41.572;24.730;2023-06-19T09:31:13;91414.28;;;24.04;80.62
59274;BME280;45044;41.572;24.730;2023-06-19T09:33:40;91416.63;;;23.53;73.80
59274;BME280;45044;41.572;24.730;2023-06-19T09:36:08;91411.75;;;23.24;76.32
59274;BME280;45044;41.572;24.730;2023-06-19T09:38:36;91413.16;;;23.09;78.57
59274;BME280;45044;41.572;24.730;2023-06-19T09:41:09;91411.09;;;23.04;82.13
59274;BME280;45044;41.572;24.730;2023-06-19T09:43:47;91406.06;;;23.74;68.93
59274;BME280;45044;41.572;24.730;2023-06-19T09:46:14;91407.88;;;24.26;72.38
59274;BME280;45044;41.572;24.730;2023-06-19T09:48:43;91402.72;;;24.38;73.25
59274;BME280;45044;41.572;24.730;2023-06-19T09:53:37;91406.91;;;25.09;77.55
59274;BME280;45044;41.572;24.730;2023-06-19T09:56:04;91404.22;;;25.09;77.85
59274;BME280;45044;41.572;24.730;2023-06-19T09:58:31;91401.97;;;24.92;77.20
59274;BME280;45044;41.572;24.730;2023-06-19T10:00:59;91409.94;;;23.83;72.02
59274;BME280;45044;41.572;24.730;2023-06-19T10:03:33;91409.56;;;24.14;75.94
59274;BME280;45044;41.572;24.730;2023-06-19T10:06:04;91408.25;;;24.59;65.96
59274;BME280;45044;41.572;24.730;2023-06-19T10:08:41;91397.22;;;24.57;65.89
59274;BME280;45044;41.572;24.730;2023-06-19T10:11:10;91390.47;;;24.76;69.22
59274;BME280;45044;41.572;24.730;2023-06-19T10:13:39;91395.47;;;24.69;74.29
59274;BME280;45044;41.572;24.730;2023-06-19T10:16:19;91404.22;;;25.09;74.17
59274;BME280;45044;41.572;24.730;2023-06-19T10:18:47;91397.06;;;25.36;71.00
59274;BME280;45044;41.572;24.730;2023-06-19T10:21:19;91397.91;;;25.27;88.60
59274;BME280;45044;41.572;24.730;2023-06-19T10:23:57;91396.31;;;24.75;80.95
59274;BME280;45044;41.572;24.730;2023-06-19T10:26:32;91405.00;;;24.55;100.00
59274;BME280;45044;41.572;24.730;2023-06-19T10:28:59;91394.25;;;24.55;100.00
59274;BME280;45044;41.572;24.730;2023-06-19T10:31:26;91385.41;;;24.94;99.60
59274;BME280;45044;41.572;24.730;2023-06-19T10:33:55;91392.38;;;24.61;100.00
59274;BME280;45044;41.572;24.730;2023-06-19T10:36:23;91395.38;;;23.99;100.00
59274;BME280;45044;41.572;24.730;2023-06-19T10:38:52;91393.19;;;23.88;100.00
59274;BME280;45044;41.572;24.730;2023-06-19T10:41:21;91401.72;;;23.86;100.00
59274;BME280;45044;41.572;24.730;2023-06-19T10:44:07;91395.94;;;24.27;100.00
59274;BME280;45044;41.572;24.730;2023-06-19T10:46:40;91396.59;;;24.22;95.79
59274;BME280;45044;41.572;24.730;2023-06-19T10:49:08;91400.78;;;24.14;100.00
59274;BME280;45044;41.572;24.730;2023-06-19T10:51:38;91395.75;;;24.07;100.00
59274;BME280;45044;41.572;24.730;2023-06-19T10:54:05;91396.09;;;23.99;100.00
59274;BME280;45044;41.572;24.730;2023-06-19T10:56:32;91393.06;;;24.07;100.00
59274;BME280;45044;41.572;24.730;2023-06-19T10:59:07;91391.06;;;23.92;100.00
59274;BME280;45044;41.572;24.730;2023-06-19T11:01:42;91393.41;;;23.75;100.00
59274;BME280;45044;41.572;24.730;2023-06-19T11:04:11;91388.47;;;23.83;100.00
59274;BME280;45044;41.572;24.730;2023-06-19T11:06:40;91391.31;;;24.03;100.00
59274;BME280;45044;41.572;24.730;2023-06-19T11:09:08;91392.69;;;24.63;100.00
59274;BME280;45044;41.572;24.730;2023-06-19T11:11:41;91398.84;;;24.39;100.00
59274;BME280;45044;41.572;24.730;2023-06-19T11:14:10;91400.00;;;24.62;100.00
59274;BME280;45044;41.572;24.730;2023-06-19T11:16:41;91401.44;;;24.88;100.00
59274;BME280;45044;41.572;24.730;2023-06-19T11:19:13;91394.31;;;25.00;100.00
59274;BME280;45044;41.572;24.730;2023-06-19T11:21:40;91391.41;;;25.34;100.00
59274;BME280;45044;41.572;24.730;2023-06-19T11:24:11;91395.22;;;25.42;100.00
59274;BME280;45044;41.572;24.730;2023-06-19T11:26:43;91401.06;;;25.26;100.00
59274;BME280;45044;41.572;24.730;2023-06-19T11:29:18;91391.41;;;24.88;92.87
59274;BME280;45044;41.572;24.730;2023-06-19T11:31:47;91394.50;;;24.17;100.00
59274;BME280;45044;41.572;24.730;2023-06-19T11:34:16;91405.31;;;23.49;100.00
59274;BME280;45044;41.572;24.730;2023-06-19T11:36:44;91411.44;;;23.31;100.00
59274;BME280;45044;41.572;24.730;2023-06-19T11:39:12;91404.75;;;22.73;100.00
59274;BME280;45044;41.572;24.730;2023-06-19T11:41:44;91412.88;;;22.23;100.00
59274;BME280;45044;41.572;24.730;2023-06-19T11:44:11;91414.91;;;21.90;100.00
59274;BME280;45044;41.572;24.730;2023-06-19T11:46:38;91406.31;;;22.05;100.00
59274;BME280;45044;41.572;24.730;2023-06-19T11:49:17;91406.78;;;22.22;100.00
59274;BME280;45044;41.572;24.730;2023-06-19T11:51:46;91400.06;;;22.08;100.00
59274;BME280;45044;41.572;24.730;2023-06-19T11:54:13;91403.97;;;22.17;100.00
59274;BME280;45044;41.572;24.730;2023-06-19T11:56:44;91401.75;;;22.15;100.00
59274;BME280;45044;41.572;24.730;2023-06-19T11:59:11;91403.81;;;22.48;100.00
59274;BME280;45044;41.572;24.730;2023-06-19T12:01:38;91395.50;;;22.37;100.00
59274;BME280;45044;41.572;24.730;2023-06-19T12:04:05;91396.66;;;22.26;100.00
59274;BME280;45044;41.572;24.730;2023-06-19T12:06:33;91392.38;;;22.29;100.00
59274;BME280;45044;41.572;24.730;2023-06-19T12:09:02;91396.38;;;22.53;100.00
59274;BME280;45044;41.572;24.730;2023-06-19T12:11:31;91392.06;;;22.27;100.00
59274;BME280;45044;41.572;24.730;2023-06-19T12:13:58;91387.16;;;22.44;100.00
59274;BME280;45044;41.572;24.730;2023-06-19T12:16:25;91383.75;;;22.44;100.00
59274;BME280;45044;41.572;24.730;2023-06-19T12:18:52;91394.28;;;22.29;100.00
59274;BME280;45044;41.572;24.730;2023-06-19T12:21:20;91398.75;;;22.13;100.00
59274;BME280;45044;41.572;24.730;2023-06-19T12:24:01;91390.75;;;21.62;100.00
59274;BME280;45044;41.572;24.730;2023-06-19T12:26:28;91393.53;;;21.49;100.00
59274;BME280;45044;41.572;24.730;2023-06-19T12:28:55;91387.72;;;21.41;100.00
59274;BME280;45044;41.572;24.730;2023-06-19T12:31:22;91390.47;;;21.28;100.00
59274;BME280;45044;41.572;24.730;2023-06-19T12:33:49;91396.47;;;21.10;100.00
59274;BME280;45044;41.572;24.730;2023-06-19T12:36:16;91392.97;;;20.91;100.00
59274;BME280;45044;41.572;24.730;2023-06-19T12:38:43;91382.22;;;21.04;100.00
59274;BME280;45044;41.572;24.730;2023-06-19T12:41:09;91376.00;;;21.39;100.00
59274;BME280;45044;41.572;24.730;2023-06-19T12:43:36;91379.53;;;21.96;100.00
59274;BME280;45044;41.572;24.730;2023-06-19T12:46:03;91380.16;;;22.37;100.00
59274;BME280;45044;41.572;24.730;2023-06-19T12:48:31;91397.44;;;22.46;100.00
59274;BME280;45044;41.572;24.730;2023-06-19T12:50:58;91394.88;;;22.99;100.00